sensor_id;sensor_type;location;lat;lon;timestamp;P1;durP1;ratioP1;P2;durP2;ratioP2
29238;SDS011;16267;48.194;11.546;2022-08-03T00:00:06;7.07;;;2.80;;
29238;SDS011;16267;48.194;11.546;2022-08-03T00:02:33;6.20;;;3.08;;
29238;SDS011;16267;48.194;11.546;2022-08-03T00:04:58;6.55;;;2.90;;
29238;SDS011;16267;48.194;11.546;2022-08-03T00:07:24;6.30;;;3.25;;
29238;SDS011;16267;48.194;11.546;2022-08-03T00:09:50;6.78;;;3.70;;
29238;SDS011;16267;48.194;11.546;2022-08-03T00:12:15;8.32;;;3.20;;
29238;SDS011;16267;48.194;11.546;2022-08-03T00:14:41;5.93;;;2.80;;
29238;SDS011;16267;48.194;11.546;2022-08-03T00:17:07;6.75;;;3.28;;
29238;SDS011;16267;48.194;11.546;2022-08-03T00:19:33;7.70;;;3.70;;
29238;SDS011;16267;48.194;11.546;2022-08-03T00:21:59;6.10;;;3.33;;
29238;SDS011;16267;48.194;11.546;2022-08-03T00:24:24;5.82;;;3.10;;
29238;SDS011;16267;48.194;11.546;2022-08-03T00:26:50;7.57;;;3.47;;
29238;SDS011;16267;48.194;11.546;2022-08-03T00:29:16;6.78;;;3.55;;
29238;SDS011;16267;48.194;11.546;2022-08-03T00:31:42;5.65;;;3.20;;
29238;SDS011;16267;48.194;11.546;2022-08-03T00:34:08;4.57;;;3.13;;
29238;SDS011;16267;48.194;11.546;2022-08-03T00:36:33;5.45;;;3.05;;
29238;SDS011;16267;48.194;11.546;2022-08-03T00:38:59;7.05;;;3.60;;
29238;SDS011;16267;48.194;11.546;2022-08-03T00:41:25;10.82;;;3.63;;
29238;SDS011;16267;48.194;11.546;2022-08-03T00:43:51;5.57;;;3.40;;
29238;SDS011;16267;48.194;11.546;2022-08-03T00:46:17;6.50;;;3.00;;
29238;SDS011;16267;48.194;11.546;2022-08-03T00:48:43;5.30;;;3.00;;
29238;SDS011;16267;48.194;11.546;2022-08-03T00:51:08;4.70;;;2.95;;
29238;SDS011;16267;48.194;11.546;2022-08-03T00:53:34;5.55;;;2.70;;
29238;SDS011;16267;48.194;11.546;2022-08-03T00:56:01;8.52;;;2.95;;
29238;SDS011;16267;48.194;11.546;2022-08-03T00:58:27;4.22;;;2.80;;
29238;SDS011;16267;48.194;11.546;2022-08-03T04:01:23;3.40;;;1.77;;
29238;SDS011;16267;48.194;11.546;2022-08-03T04:03:49;12.70;;;2.10;;
29238;SDS011;16267;48.194;11.546;2022-08-03T04:06:15;2.30;;;1.60;;
29238;SDS011;16267;48.194;11.546;2022-08-03T04:09:00;2.17;;;1.60;;
29238;SDS011;16267;48.194;11.546;2022-08-03T04:11:46;1.50;;;1.40;;
29238;SDS011;16267;48.194;11.546;2022-08-03T04:16:46;3.85;;;1.52;;
29238;SDS011;16267;48.194;11.546;2022-08-03T04:19:18;2.58;;;1.80;;
29238;SDS011;16267;48.194;11.546;2022-08-03T04:22:04;3.30;;;1.65;;
29238;SDS011;16267;48.194;11.546;2022-08-03T04:24:39;3.75;;;1.88;;
29238;SDS011;16267;48.194;11.546;2022-08-03T04:27:10;3.45;;;1.83;;
29238;SDS011;16267;48.194;11.546;2022-08-03T04:29:40;2.75;;;1.88;;
29238;SDS011;16267;48.194;11.546;2022-08-03T04:32:10;3.10;;;1.67;;
29238;SDS011;16267;48.194;11.546;2022-08-03T04:34:38;4.88;;;1.80;;
29238;SDS011;16267;48.194;11.546;2022-08-03T04:37:07;2.90;;;1.83;;
29238;SDS011;16267;48.194;11.546;2022-08-03T04:39:39;2.30;;;1.70;;
29238;SDS011;16267;48.194;11.546;2022-08-03T04:42:06;2.97;;;1.77;;
29238;SDS011;16267;48.194;11.546;2022-08-03T04:44:36;3.30;;;2.05;;
29238;SDS011;16267;48.194;11.546;2022-08-03T04:47:07;8.48;;;1.92;;
29238;SDS011;16267;48.194;11.546;2022-08-03T04:49:34;2.60;;;1.70;;
29238;SDS011;16267;48.194;11.546;2022-08-03T04:52:01;2.72;;;1.60;;
29238;SDS011;16267;48.194;11.546;2022-08-03T04:54:29;3.25;;;1.92;;
29238;SDS011;16267;48.194;11.546;2022-08-03T04:56:55;2.00;;;1.73;;
29238;SDS011;16267;48.194;11.546;2022-08-03T04:59:21;3.13;;;1.95;;
29238;SDS011;16267;48.194;11.546;2022-08-03T05:01:46;6.68;;;2.03;;
29238;SDS011;16267;48.194;11.546;2022-08-03T05:04:12;2.92;;;1.83;;
29238;SDS011;16267;48.194;11.546;2022-08-03T05:06:38;4.85;;;1.90;;
29238;SDS011;16267;48.194;11.546;2022-08-03T05:09:04;2.47;;;2.10;;
29238;SDS011;16267;48.194;11.546;2022-08-03T05:11:30;4.07;;;1.98;;
29238;SDS011;16267;48.194;11.546;2022-08-03T05:13:55;7.32;;;2.20;;
29238;SDS011;16267;48.194;11.546;2022-08-03T05:16:21;4.88;;;2.15;;
29238;SDS011;16267;48.194;11.546;2022-08-03T05:18:49;3.78;;;1.80;;
29238;SDS011;16267;48.194;11.546;2022-08-03T05:21:15;4.57;;;2.08;;
29238;SDS011;16267;48.194;11.546;2022-08-03T05:23:41;3.05;;;2.10;;
29238;SDS011;16267;48.194;11.546;2022-08-03T05:26:08;3.65;;;2.20;;
29238;SDS011;16267;48.194;11.546;2022-08-03T05:28:36;2.85;;;1.65;;
29238;SDS011;16267;48.194;11.546;2022-08-03T05:31:02;2.60;;;1.80;;
29238;SDS011;16267;48.194;11.546;2022-08-03T05:33:28;3.85;;;1.90;;
29238;SDS011;16267;48.194;11.546;2022-08-03T05:35:54;3.03;;;1.98;;
29238;SDS011;16267;48.194;11.546;2022-08-03T05:38:20;7.03;;;2.70;;
29238;SDS011;16267;48.194;11.546;2022-08-03T05:40:45;6.60;;;2.03;;
29238;SDS011;16267;48.194;11.546;2022-08-03T05:43:11;4.65;;;2.55;;
29238;SDS011;16267;48.194;11.546;2022-08-03T05:45:37;4.05;;;2.13;;
29238;SDS011;16267;48.194;11.546;2022-08-03T05:48:04;3.70;;;1.83;;
29238;SDS011;16267;48.194;11.546;2022-08-03T05:50:30;6.90;;;2.03;;
29238;SDS011;16267;48.194;11.546;2022-08-03T05:52:56;2.80;;;1.85;;
29238;SDS011;16267;48.194;11.546;2022-08-03T05:55:22;7.90;;;1.92;;
29238;SDS011;16267;48.194;11.546;2022-08-03T05:57:48;7.43;;;2.42;;
29238;SDS011;16267;48.194;11.546;2022-08-03T06:00:14;3.47;;;1.70;;
29238;SDS011;16267;48.194;11.546;2022-08-03T06:02:41;6.07;;;2.00;;
29238;SDS011;16267;48.194;11.546;2022-08-03T06:05:07;3.80;;;2.00;;
29238;SDS011;16267;48.194;11.546;2022-08-03T06:07:33;3.45;;;1.90;;
29238;SDS011;16267;48.194;11.546;2022-08-03T06:09:59;3.08;;;2.15;;
29238;SDS011;16267;48.194;11.546;2022-08-03T06:12:28;5.40;;;2.47;;
29238;SDS011;16267;48.194;11.546;2022-08-03T06:14:54;9.20;;;2.50;;
29238;SDS011;16267;48.194;11.546;2022-08-03T06:17:20;4.57;;;2.35;;
29238;SDS011;16267;48.194;11.546;2022-08-03T06:19:46;6.05;;;2.65;;
29238;SDS011;16267;48.194;11.546;2022-08-03T06:22:12;6.55;;;2.60;;
29238;SDS011;16267;48.194;11.546;2022-08-03T06:24:38;6.05;;;2.53;;
29238;SDS011;16267;48.194;11.546;2022-08-03T06:27:03;6.55;;;2.80;;
29238;SDS011;16267;48.194;11.546;2022-08-03T06:29:29;8.23;;;2.90;;
29238;SDS011;16267;48.194;11.546;2022-08-03T06:31:55;5.15;;;2.60;;
29238;SDS011;16267;48.194;11.546;2022-08-03T06:34:21;4.80;;;2.70;;
29238;SDS011;16267;48.194;11.546;2022-08-03T06:36:46;6.55;;;2.45;;
29238;SDS011;16267;48.194;11.546;2022-08-03T06:39:14;11.10;;;2.90;;
29238;SDS011;16267;48.194;11.546;2022-08-03T06:41:41;8.30;;;2.60;;
29238;SDS011;16267;48.194;11.546;2022-08-03T06:44:07;7.93;;;2.90;;
29238;SDS011;16267;48.194;11.546;2022-08-03T06:46:39;4.80;;;2.50;;
29238;SDS011;16267;48.194;11.546;2022-08-03T06:49:06;11.00;;;2.45;;
29238;SDS011;16267;48.194;11.546;2022-08-03T06:51:32;6.93;;;2.30;;
29238;SDS011;16267;48.194;11.546;2022-08-03T06:53:58;7.32;;;2.10;;
29238;SDS011;16267;48.194;11.546;2022-08-03T06:56:24;5.63;;;2.03;;
29238;SDS011;16267;48.194;11.546;2022-08-03T06:58:49;7.22;;;1.95;;
29238;SDS011;16267;48.194;11.546;2022-08-03T07:01:15;10.52;;;1.60;;
29238;SDS011;16267;48.194;11.546;2022-08-03T07:03:41;7.63;;;2.00;;
29238;SDS011;16267;48.194;11.546;2022-08-03T07:06:07;6.90;;;1.55;;
29238;SDS011;16267;48.194;11.546;2022-08-03T07:08:33;3.65;;;1.27;;
29238;SDS011;16267;48.194;11.546;2022-08-03T07:10:58;5.63;;;1.75;;
29238;SDS011;16267;48.194;11.546;2022-08-03T07:13:24;3.78;;;1.50;;
29238;SDS011;16267;48.194;11.546;2022-08-03T07:15:50;4.30;;;1.63;;
29238;SDS011;16267;48.194;11.546;2022-08-03T07:18:16;4.22;;;1.40;;
29238;SDS011;16267;48.194;11.546;2022-08-03T07:20:42;4.43;;;1.48;;
29238;SDS011;16267;48.194;11.546;2022-08-03T07:23:08;3.08;;;1.20;;
29238;SDS011;16267;48.194;11.546;2022-08-03T07:25:34;2.47;;;1.20;;
29238;SDS011;16267;48.194;11.546;2022-08-03T07:28:00;6.88;;;1.30;;
29238;SDS011;16267;48.194;11.546;2022-08-03T07:30:25;2.55;;;1.38;;
29238;SDS011;16267;48.194;11.546;2022-08-03T07:32:51;7.43;;;1.30;;
29238;SDS011;16267;48.194;11.546;2022-08-03T07:35:17;3.67;;;1.17;;
29238;SDS011;16267;48.194;11.546;2022-08-03T07:37:43;2.40;;;1.30;;
29238;SDS011;16267;48.194;11.546;2022-08-03T07:40:09;1.60;;;1.33;;
29238;SDS011;16267;48.194;11.546;2022-08-03T07:42:35;3.05;;;1.10;;
29238;SDS011;16267;48.194;11.546;2022-08-03T07:45:10;3.92;;;1.15;;
29238;SDS011;16267;48.194;11.546;2022-08-03T07:47:35;2.53;;;1.15;;
29238;SDS011;16267;48.194;11.546;2022-08-03T07:50:02;2.47;;;1.33;;
29238;SDS011;16267;48.194;11.546;2022-08-03T07:52:30;2.33;;;1.20;;
29238;SDS011;16267;48.194;11.546;2022-08-03T07:55:14;3.63;;;1.13;;
29238;SDS011;16267;48.194;11.546;2022-08-03T07:57:40;2.35;;;1.00;;
29238;SDS011;16267;48.194;11.546;2022-08-03T08:00:11;5.35;;;1.02;;
29238;SDS011;16267;48.194;11.546;2022-08-03T08:02:43;7.95;;;1.55;;
29238;SDS011;16267;48.194;11.546;2022-08-03T08:05:10;5.10;;;1.30;;
29238;SDS011;16267;48.194;11.546;2022-08-03T08:07:37;4.70;;;1.02;;
29238;SDS011;16267;48.194;11.546;2022-08-03T08:10:04;2.40;;;1.13;;
29238;SDS011;16267;48.194;11.546;2022-08-03T08:12:32;1.83;;;0.95;;
29238;SDS011;16267;48.194;11.546;2022-08-03T08:14:58;5.75;;;1.00;;
29238;SDS011;16267;48.194;11.546;2022-08-03T08:17:23;5.40;;;1.08;;
29238;SDS011;16267;48.194;11.546;2022-08-03T08:19:49;2.83;;;1.10;;
29238;SDS011;16267;48.194;11.546;2022-08-03T08:22:15;3.50;;;1.08;;
29238;SDS011;16267;48.194;11.546;2022-08-03T08:24:41;2.75;;;0.90;;
29238;SDS011;16267;48.194;11.546;2022-08-03T08:27:08;1.65;;;1.10;;
29238;SDS011;16267;48.194;11.546;2022-08-03T08:29:36;1.73;;;0.90;;
29238;SDS011;16267;48.194;11.546;2022-08-03T08:32:02;3.25;;;1.00;;
29238;SDS011;16267;48.194;11.546;2022-08-03T08:34:29;5.82;;;1.45;;
29238;SDS011;16267;48.194;11.546;2022-08-03T08:36:54;2.97;;;0.80;;
29238;SDS011;16267;48.194;11.546;2022-08-03T08:39:20;2.35;;;1.10;;
29238;SDS011;16267;48.194;11.546;2022-08-03T08:41:49;7.80;;;1.20;;
29238;SDS011;16267;48.194;11.546;2022-08-03T08:44:16;1.40;;;1.00;;
29238;SDS011;16267;48.194;11.546;2022-08-03T08:46:41;2.78;;;1.00;;
29238;SDS011;16267;48.194;11.546;2022-08-03T08:49:08;2.33;;;1.05;;
29238;SDS011;16267;48.194;11.546;2022-08-03T08:51:41;4.35;;;0.80;;
29238;SDS011;16267;48.194;11.546;2022-08-03T08:54:10;3.95;;;0.90;;
29238;SDS011;16267;48.194;11.546;2022-08-03T08:56:37;1.23;;;0.93;;
29238;SDS011;16267;48.194;11.546;2022-08-03T08:59:03;3.67;;;1.05;;
29238;SDS011;16267;48.194;11.546;2022-08-03T09:01:30;4.30;;;1.02;;
29238;SDS011;16267;48.194;11.546;2022-08-03T09:03:56;2.63;;;0.90;;
29238;SDS011;16267;48.194;11.546;2022-08-03T09:06:24;1.83;;;0.90;;
29238;SDS011;16267;48.194;11.546;2022-08-03T09:08:50;4.50;;;1.15;;
29238;SDS011;16267;48.194;11.546;2022-08-03T09:11:19;3.25;;;0.95;;
29238;SDS011;16267;48.194;11.546;2022-08-03T09:13:47;2.67;;;0.93;;
29238;SDS011;16267;48.194;11.546;2022-08-03T09:16:14;2.45;;;1.05;;
29238;SDS011;16267;48.194;11.546;2022-08-03T09:18:43;7.05;;;1.00;;
29238;SDS011;16267;48.194;11.546;2022-08-03T09:24:16;1.00;;;0.60;;
29238;SDS011;16267;48.194;11.546;2022-08-03T09:26:48;1.60;;;0.80;;
29238;SDS011;16267;48.194;11.546;2022-08-03T09:29:19;3.78;;;1.17;;
29238;SDS011;16267;48.194;11.546;2022-08-03T09:31:58;5.60;;;0.90;;
29238;SDS011;16267;48.194;11.546;2022-08-03T09:34:26;7.40;;;1.08;;
29238;SDS011;16267;48.194;11.546;2022-08-03T09:36:52;2.20;;;1.00;;
29238;SDS011;16267;48.194;11.546;2022-08-03T09:39:19;3.05;;;0.95;;
29238;SDS011;16267;48.194;11.546;2022-08-03T09:42:03;2.08;;;0.95;;
29238;SDS011;16267;48.194;11.546;2022-08-03T09:44:33;7.32;;;1.05;;
29238;SDS011;16267;48.194;11.546;2022-08-03T09:47:29;2.75;;;1.20;;
29238;SDS011;16267;48.194;11.546;2022-08-03T09:55:02;4.57;;;0.90;;
29238;SDS011;16267;48.194;11.546;2022-08-03T09:57:34;2.17;;;1.20;;
29238;SDS011;16267;48.194;11.546;2022-08-03T10:00:19;4.57;;;1.15;;
29238;SDS011;16267;48.194;11.546;2022-08-03T10:02:45;4.47;;;1.50;;
29238;SDS011;16267;48.194;11.546;2022-08-03T10:05:12;5.68;;;1.23;;
29238;SDS011;16267;48.194;11.546;2022-08-03T10:07:42;1.50;;;0.90;;
29238;SDS011;16267;48.194;11.546;2022-08-03T10:10:10;3.15;;;1.00;;
29238;SDS011;16267;48.194;11.546;2022-08-03T10:12:39;6.07;;;1.30;;
29238;SDS011;16267;48.194;11.546;2022-08-03T10:17:37;4.60;;;0.85;;
29238;SDS011;16267;48.194;11.546;2022-08-03T10:20:04;0.98;;;0.88;;
29238;SDS011;16267;48.194;11.546;2022-08-03T10:22:32;1.67;;;0.90;;
29238;SDS011;16267;48.194;11.546;2022-08-03T10:25:07;2.03;;;1.10;;
29238;SDS011;16267;48.194;11.546;2022-08-03T10:27:37;2.65;;;0.80;;
29238;SDS011;16267;48.194;11.546;2022-08-03T10:30:10;3.25;;;0.90;;
29238;SDS011;16267;48.194;11.546;2022-08-03T10:32:40;2.47;;;0.80;;
29238;SDS011;16267;48.194;11.546;2022-08-03T10:35:18;2.08;;;0.90;;
29238;SDS011;16267;48.194;11.546;2022-08-03T10:37:58;3.80;;;0.77;;
29238;SDS011;16267;48.194;11.546;2022-08-03T10:40:32;5.90;;;0.80;;
29238;SDS011;16267;48.194;11.546;2022-08-03T10:43:06;1.42;;;0.90;;
29238;SDS011;16267;48.194;11.546;2022-08-03T10:45:39;3.78;;;0.88;;
29238;SDS011;16267;48.194;11.546;2022-08-03T10:48:07;3.42;;;0.80;;
29238;SDS011;16267;48.194;11.546;2022-08-03T10:50:34;0.77;;;0.60;;
29238;SDS011;16267;48.194;11.546;2022-08-03T10:53:01;1.73;;;0.73;;
29238;SDS011;16267;48.194;11.546;2022-08-03T10:55:33;1.67;;;0.88;;
29238;SDS011;16267;48.194;11.546;2022-08-03T11:01:49;2.05;;;0.60;;
29238;SDS011;16267;48.194;11.546;2022-08-03T11:04:19;1.98;;;0.73;;
29238;SDS011;16267;48.194;11.546;2022-08-03T11:06:54;1.13;;;0.70;;
29238;SDS011;16267;48.194;11.546;2022-08-03T11:09:43;4.30;;;0.77;;
29238;SDS011;16267;48.194;11.546;2022-08-03T11:12:26;3.83;;;0.80;;
29238;SDS011;16267;48.194;11.546;2022-08-03T11:15:02;5.50;;;0.90;;
29238;SDS011;16267;48.194;11.546;2022-08-03T11:17:32;3.47;;;0.90;;
29238;SDS011;16267;48.194;11.546;2022-08-03T11:19:59;2.13;;;0.80;;
29238;SDS011;16267;48.194;11.546;2022-08-03T11:22:25;1.70;;;0.70;;
29238;SDS011;16267;48.194;11.546;2022-08-03T11:25:15;3.05;;;0.70;;
29238;SDS011;16267;48.194;11.546;2022-08-03T11:27:41;1.77;;;0.80;;
29238;SDS011;16267;48.194;11.546;2022-08-03T11:43:07;2.55;;;1.00;;
29238;SDS011;16267;48.194;11.546;2022-08-03T11:45:58;4.47;;;0.97;;
29238;SDS011;16267;48.194;11.546;2022-08-03T11:48:42;3.95;;;0.80;;
29238;SDS011;16267;48.194;11.546;2022-08-03T11:51:23;0.85;;;0.70;;
29238;SDS011;16267;48.194;11.546;2022-08-03T11:53:56;2.35;;;0.70;;
29238;SDS011;16267;48.194;11.546;2022-08-03T11:56:29;1.40;;;0.80;;
29238;SDS011;16267;48.194;11.546;2022-08-03T11:59:14;1.00;;;0.60;;
29238;SDS011;16267;48.194;11.546;2022-08-03T12:01:43;2.55;;;0.93;;
29238;SDS011;16267;48.194;11.546;2022-08-03T12:04:10;3.45;;;1.02;;
29238;SDS011;16267;48.194;11.546;2022-08-03T12:06:35;3.13;;;0.50;;
29238;SDS011;16267;48.194;11.546;2022-08-03T12:09:22;1.23;;;0.70;;
29238;SDS011;16267;48.194;11.546;2022-08-03T12:11:49;2.47;;;0.80;;
29238;SDS011;16267;48.194;11.546;2022-08-03T12:14:16;2.55;;;0.80;;
29238;SDS011;16267;48.194;11.546;2022-08-03T12:16:48;1.10;;;0.70;;
29238;SDS011;16267;48.194;11.546;2022-08-03T12:19:14;4.32;;;0.93;;
29238;SDS011;16267;48.194;11.546;2022-08-03T12:21:46;1.48;;;0.80;;
29238;SDS011;16267;48.194;11.546;2022-08-03T12:24:14;1.65;;;0.63;;
29238;SDS011;16267;48.194;11.546;2022-08-03T12:26:42;2.03;;;0.60;;
29238;SDS011;16267;48.194;11.546;2022-08-03T12:29:20;2.53;;;0.60;;
29238;SDS011;16267;48.194;11.546;2022-08-03T12:31:49;4.03;;;0.70;;
29238;SDS011;16267;48.194;11.546;2022-08-03T12:36:51;1.35;;;0.80;;
29238;SDS011;16267;48.194;11.546;2022-08-03T12:39:23;2.10;;;0.80;;
29238;SDS011;16267;48.194;11.546;2022-08-03T12:41:53;0.73;;;0.60;;
29238;SDS011;16267;48.194;11.546;2022-08-03T12:44:30;0.82;;;0.70;;
29238;SDS011;16267;48.194;11.546;2022-08-03T12:46:58;1.45;;;0.70;;
29238;SDS011;16267;48.194;11.546;2022-08-03T12:49:26;1.02;;;0.73;;
29238;SDS011;16267;48.194;11.546;2022-08-03T12:59:31;2.17;;;0.60;;
29238;SDS011;16267;48.194;11.546;2022-08-03T13:02:00;2.22;;;0.90;;
29238;SDS011;16267;48.194;11.546;2022-08-03T13:04:28;2.63;;;0.80;;
29238;SDS011;16267;48.194;11.546;2022-08-03T13:07:11;4.50;;;0.95;;
29238;SDS011;16267;48.194;11.546;2022-08-03T13:09:42;0.70;;;0.70;;
29238;SDS011;16267;48.194;11.546;2022-08-03T13:12:15;1.30;;;0.80;;
29238;SDS011;16267;48.194;11.546;2022-08-03T13:14:44;1.48;;;0.70;;
29238;SDS011;16267;48.194;11.546;2022-08-03T13:17:13;0.70;;;0.70;;
29238;SDS011;16267;48.194;11.546;2022-08-03T13:19:40;3.72;;;0.82;;
29238;SDS011;16267;48.194;11.546;2022-08-03T13:22:20;1.65;;;0.70;;
29238;SDS011;16267;48.194;11.546;2022-08-03T13:24:53;1.40;;;0.80;;
29238;SDS011;16267;48.194;11.546;2022-08-03T13:27:21;1.85;;;0.80;;
29238;SDS011;16267;48.194;11.546;2022-08-03T13:29:48;1.92;;;0.88;;
29238;SDS011;16267;48.194;11.546;2022-08-03T13:32:15;4.00;;;0.70;;
29238;SDS011;16267;48.194;11.546;2022-08-03T13:34:44;0.70;;;0.70;;
29238;SDS011;16267;48.194;11.546;2022-08-03T13:37:10;1.08;;;0.60;;
29238;SDS011;16267;48.194;11.546;2022-08-03T13:39:37;5.22;;;0.75;;
29238;SDS011;16267;48.194;11.546;2022-08-03T13:42:03;1.55;;;0.60;;
29238;SDS011;16267;48.194;11.546;2022-08-03T13:44:29;0.85;;;0.68;;
29238;SDS011;16267;48.194;11.546;2022-08-03T13:46:56;5.20;;;0.90;;
29238;SDS011;16267;48.194;11.546;2022-08-03T13:49:24;1.02;;;0.52;;
29238;SDS011;16267;48.194;11.546;2022-08-03T13:51:54;4.75;;;0.90;;
29238;SDS011;16267;48.194;11.546;2022-08-03T13:54:23;1.05;;;0.65;;
29238;SDS011;16267;48.194;11.546;2022-08-03T13:56:50;0.93;;;0.73;;
29238;SDS011;16267;48.194;11.546;2022-08-03T13:59:21;3.45;;;0.73;;
29238;SDS011;16267;48.194;11.546;2022-08-03T14:01:49;1.65;;;0.73;;
29238;SDS011;16267;48.194;11.546;2022-08-03T14:04:16;1.30;;;0.77;;
29238;SDS011;16267;48.194;11.546;2022-08-03T14:06:42;2.25;;;0.80;;
29238;SDS011;16267;48.194;11.546;2022-08-03T14:09:09;0.98;;;0.75;;
29238;SDS011;16267;48.194;11.546;2022-08-03T14:11:40;1.45;;;0.80;;
29238;SDS011;16267;48.194;11.546;2022-08-03T14:14:07;2.33;;;0.70;;
29238;SDS011;16267;48.194;11.546;2022-08-03T14:16:34;2.65;;;0.60;;
29238;SDS011;16267;48.194;11.546;2022-08-03T14:19:00;1.95;;;0.80;;
29238;SDS011;16267;48.194;11.546;2022-08-03T14:21:26;0.50;;;0.50;;
29238;SDS011;16267;48.194;11.546;2022-08-03T14:23:52;3.30;;;0.80;;
29238;SDS011;16267;48.194;11.546;2022-08-03T14:26:18;2.00;;;1.05;;
29238;SDS011;16267;48.194;11.546;2022-08-03T14:28:44;3.10;;;0.95;;
29238;SDS011;16267;48.194;11.546;2022-08-03T14:31:10;1.42;;;0.70;;
29238;SDS011;16267;48.194;11.546;2022-08-03T14:33:36;7.28;;;0.75;;
29238;SDS011;16267;48.194;11.546;2022-08-03T14:36:02;0.90;;;0.60;;
29238;SDS011;16267;48.194;11.546;2022-08-03T14:38:29;5.03;;;1.00;;
29238;SDS011;16267;48.194;11.546;2022-08-03T14:40:55;1.55;;;0.70;;
29238;SDS011;16267;48.194;11.546;2022-08-03T14:43:21;6.05;;;1.05;;
29238;SDS011;16267;48.194;11.546;2022-08-03T14:45:47;1.25;;;0.90;;
29238;SDS011;16267;48.194;11.546;2022-08-03T14:48:20;1.52;;;0.95;;
29238;SDS011;16267;48.194;11.546;2022-08-03T14:50:49;1.83;;;0.70;;
29238;SDS011;16267;48.194;11.546;2022-08-03T14:53:16;1.42;;;1.10;;
29238;SDS011;16267;48.194;11.546;2022-08-03T14:55:44;7.60;;;0.80;;
29238;SDS011;16267;48.194;11.546;2022-08-03T14:58:13;5.80;;;0.77;;
29238;SDS011;16267;48.194;11.546;2022-08-03T15:00:42;4.10;;;1.13;;
29238;SDS011;16267;48.194;11.546;2022-08-03T15:03:08;1.42;;;1.00;;
29238;SDS011;16267;48.194;11.546;2022-08-03T15:05:34;1.20;;;0.77;;
29238;SDS011;16267;48.194;11.546;2022-08-03T15:08:03;4.03;;;0.88;;
29238;SDS011;16267;48.194;11.546;2022-08-03T15:10:30;2.80;;;0.73;;
29238;SDS011;16267;48.194;11.546;2022-08-03T15:12:56;1.90;;;0.82;;
29238;SDS011;16267;48.194;11.546;2022-08-03T15:15:22;2.78;;;0.80;;
29238;SDS011;16267;48.194;11.546;2022-08-03T15:17:48;1.60;;;0.95;;
29238;SDS011;16267;48.194;11.546;2022-08-03T15:20:14;3.80;;;0.70;;
29238;SDS011;16267;48.194;11.546;2022-08-03T15:22:40;2.67;;;0.90;;
29238;SDS011;16267;48.194;11.546;2022-08-03T15:25:06;1.42;;;0.68;;
29238;SDS011;16267;48.194;11.546;2022-08-03T15:27:32;4.95;;;0.80;;
29238;SDS011;16267;48.194;11.546;2022-08-03T15:30:11;3.67;;;0.90;;
29238;SDS011;16267;48.194;11.546;2022-08-03T15:32:37;3.22;;;0.73;;
29238;SDS011;16267;48.194;11.546;2022-08-03T15:35:03;1.55;;;0.70;;
29238;SDS011;16267;48.194;11.546;2022-08-03T15:37:30;3.95;;;0.90;;
29238;SDS011;16267;48.194;11.546;2022-08-03T15:39:56;4.30;;;0.70;;
29238;SDS011;16267;48.194;11.546;2022-08-03T15:42:22;1.25;;;0.90;;
29238;SDS011;16267;48.194;11.546;2022-08-03T15:44:49;4.88;;;0.93;;
29238;SDS011;16267;48.194;11.546;2022-08-03T15:47:15;1.42;;;0.80;;
29238;SDS011;16267;48.194;11.546;2022-08-03T15:49:41;3.95;;;0.70;;
29238;SDS011;16267;48.194;11.546;2022-08-03T15:52:06;4.38;;;0.93;;
29238;SDS011;16267;48.194;11.546;2022-08-03T15:54:32;1.63;;;0.70;;
29238;SDS011;16267;48.194;11.546;2022-08-03T15:56:58;4.05;;;0.90;;
29238;SDS011;16267;48.194;11.546;2022-08-03T15:59:24;3.05;;;0.93;;
29238;SDS011;16267;48.194;11.546;2022-08-03T16:01:50;3.25;;;0.77;;
29238;SDS011;16267;48.194;11.546;2022-08-03T16:04:20;1.73;;;0.85;;
29238;SDS011;16267;48.194;11.546;2022-08-03T16:06:46;2.25;;;0.80;;
29238;SDS011;16267;48.194;11.546;2022-08-03T16:09:26;2.78;;;0.70;;
29238;SDS011;16267;48.194;11.546;2022-08-03T16:11:52;1.27;;;0.90;;
29238;SDS011;16267;48.194;11.546;2022-08-03T16:14:18;1.67;;;0.80;;
29238;SDS011;16267;48.194;11.546;2022-08-03T16:16:44;4.70;;;1.52;;
29238;SDS011;16267;48.194;11.546;2022-08-03T16:19:10;3.75;;;1.00;;
29238;SDS011;16267;48.194;11.546;2022-08-03T16:21:36;2.90;;;0.80;;
29238;SDS011;16267;48.194;11.546;2022-08-03T16:24:01;3.40;;;0.85;;
29238;SDS011;16267;48.194;11.546;2022-08-03T16:26:29;2.88;;;1.20;;
29238;SDS011;16267;48.194;11.546;2022-08-03T16:28:55;5.18;;;1.10;;
29238;SDS011;16267;48.194;11.546;2022-08-03T16:31:21;3.08;;;0.98;;
29238;SDS011;16267;48.194;11.546;2022-08-03T16:33:51;1.30;;;1.00;;
29238;SDS011;16267;48.194;11.546;2022-08-03T16:36:17;1.58;;;0.80;;
29238;SDS011;16267;48.194;11.546;2022-08-03T16:38:43;1.10;;;1.00;;
29238;SDS011;16267;48.194;11.546;2022-08-03T16:41:09;1.75;;;0.80;;
29238;SDS011;16267;48.194;11.546;2022-08-03T16:43:35;2.70;;;0.90;;
29238;SDS011;16267;48.194;11.546;2022-08-03T16:46:01;4.20;;;1.00;;
29238;SDS011;16267;48.194;11.546;2022-08-03T16:48:27;2.92;;;1.00;;
29238;SDS011;16267;48.194;11.546;2022-08-03T16:50:53;5.68;;;0.85;;
29238;SDS011;16267;48.194;11.546;2022-08-03T16:53:18;0.75;;;0.70;;
29238;SDS011;16267;48.194;11.546;2022-08-03T16:55:44;3.22;;;0.82;;
29238;SDS011;16267;48.194;11.546;2022-08-03T16:58:13;1.75;;;1.02;;
29238;SDS011;16267;48.194;11.546;2022-08-03T17:00:43;1.58;;;0.77;;
29238;SDS011;16267;48.194;11.546;2022-08-03T17:03:09;2.67;;;0.80;;
29238;SDS011;16267;48.194;11.546;2022-08-03T17:05:36;2.00;;;0.93;;
29238;SDS011;16267;48.194;11.546;2022-08-03T17:08:01;1.75;;;0.95;;
29238;SDS011;16267;48.194;11.546;2022-08-03T17:10:27;4.43;;;0.90;;
29238;SDS011;16267;48.194;11.546;2022-08-03T17:12:53;2.53;;;0.90;;
29238;SDS011;16267;48.194;11.546;2022-08-03T17:15:19;4.10;;;1.15;;
29238;SDS011;16267;48.194;11.546;2022-08-03T17:17:47;1.08;;;0.80;;
29238;SDS011;16267;48.194;11.546;2022-08-03T17:20:26;2.20;;;1.30;;
29238;SDS011;16267;48.194;11.546;2022-08-03T17:23:02;2.72;;;0.88;;
29238;SDS011;16267;48.194;11.546;2022-08-03T17:25:43;3.55;;;0.77;;
29238;SDS011;16267;48.194;11.546;2022-08-03T17:28:09;1.70;;;0.95;;
29238;SDS011;16267;48.194;11.546;2022-08-03T17:30:38;1.83;;;1.08;;
29238;SDS011;16267;48.194;11.546;2022-08-03T17:33:23;1.40;;;0.90;;
29238;SDS011;16267;48.194;11.546;2022-08-03T17:35:49;1.27;;;1.00;;
29238;SDS011;16267;48.194;11.546;2022-08-03T17:38:19;3.25;;;1.15;;
29238;SDS011;16267;48.194;11.546;2022-08-03T17:40:47;0.85;;;0.70;;
29238;SDS011;16267;48.194;11.546;2022-08-03T17:43:14;5.32;;;1.20;;
29238;SDS011;16267;48.194;11.546;2022-08-03T17:45:41;2.17;;;0.90;;
29238;SDS011;16267;48.194;11.546;2022-08-03T17:48:07;6.10;;;1.20;;
29238;SDS011;16267;48.194;11.546;2022-08-03T17:50:35;3.63;;;1.08;;
29238;SDS011;16267;48.194;11.546;2022-08-03T17:53:11;7.28;;;1.27;;
29238;SDS011;16267;48.194;11.546;2022-08-03T17:55:46;3.72;;;1.00;;
29238;SDS011;16267;48.194;11.546;2022-08-03T17:58:24;1.50;;;1.00;;
29238;SDS011;16267;48.194;11.546;2022-08-03T18:01:13;3.28;;;0.85;;
29238;SDS011;16267;48.194;11.546;2022-08-03T18:03:59;2.70;;;1.20;;
29238;SDS011;16267;48.194;11.546;2022-08-03T18:06:31;2.38;;;0.93;;
29238;SDS011;16267;48.194;11.546;2022-08-03T18:09:02;3.92;;;1.20;;
29238;SDS011;16267;48.194;11.546;2022-08-03T18:11:31;1.88;;;1.27;;
29238;SDS011;16267;48.194;11.546;2022-08-03T18:14:15;4.55;;;1.23;;
29238;SDS011;16267;48.194;11.546;2022-08-03T18:16:56;2.38;;;1.00;;
29238;SDS011;16267;48.194;11.546;2022-08-03T18:19:34;4.13;;;1.23;;
29238;SDS011;16267;48.194;11.546;2022-08-03T18:22:00;1.95;;;1.25;;